Storm Events Database

Event Details

Event Hail
Magnitude 1.75 in.
State OKLAHOMA
County/Area WOODS
WFO OUN
Report Source Public
NCDC Data Source CSV
Begin Date 2007-06-19 18:23:00.0 CST-6
Begin Location 7N ALVA
Begin Lat/Lon 36.9/-98.67
End Date 2007-06-19 18:23:00.0 CST-6
Deaths Direct/Indirect 0/0 (fatality details below, when available...)
Injuries Direct/Indirect 0/0
Property Damage 0.00K
Crop Damage 0.00K
Episode Narrative A widespread severe thunderstorm event occurred over much of Oklahoma from the 19th into the 20th. A weakly capped airmass, combined with a surface trough oriented northwest to southeast over Oklahoma, and afternoon heating allowed for another round of strong to severe thunderstorms to develop. Wind shear along the outflow boundary and decent instability allowed for the some of the thunderstorms to produce high winds and large hail. Also, a complex of thunderstorms developed over western Kansas and moved south toward northern Oklahoma. The low level jet cranked up as night fell, pumping in warm and very moist air. The thunderstorm complex continued moving south while intensifying. Widespread severe winds and large hail accompanied the thunderstorms. The thunderstorm complex moved south through much of Oklahoma before moving into Texas. Monetary damages were estimated.
Event Narrative The hail was reported at the intersection of HWY 11 and 281.


     ‚Äč



All events for this episode:

Location County/Zone St. Date Time T.Z. Type Mag Dth Inj PrD CrD
Totals: 0 0 219.00K 0.00K
HILLSDALE GARFIELD CO. OK 06/19/2007 16:15 CST-6 Hail 1.75 in. 0 0 0.00K 0.00K
CHEROKEE ALFALFA CO. OK 06/19/2007 16:45 CST-6 Hail 1.75 in. 0 0 0.00K 0.00K
GOLTRY ALFALFA CO. OK 06/19/2007 16:53 CST-6 Hail 4.25 in. 0 0 0.00K 0.00K
CARRIER GARFIELD CO. OK 06/19/2007 16:55 CST-6 Hail 1.75 in. 0 0 0.00K 0.00K
BURLINGTON ALFALFA CO. OK 06/19/2007 17:00 CST-6 Hail 1.75 in. 0 0 0.00K 0.00K
CHEROKEE ALFALFA CO. OK 06/19/2007 17:10 CST-6 Hail 2.00 in. 0 0 0.00K 0.00K
CARRIER GARFIELD CO. OK 06/19/2007 17:40 CST-6 Hail 0.88 in. 0 0 0.00K 0.00K
GOLTRY ALFALFA CO. OK 06/19/2007 17:45 CST-6 Hail 2.75 in. 0 0 0.00K 0.00K
MENO MAJOR CO. OK 06/19/2007 17:55 CST-6 Funnel Cloud 0 0 0.00K 0.00K
HILLSDALE GARFIELD CO. OK 06/19/2007 18:00 CST-6 Flash Flood 0 0 0.00K 0.00K
RINGWOOD MAJOR CO. OK 06/19/2007 18:20 CST-6 Thunderstorm Wind 70 kts. EG 0 0 0.00K 0.00K
ALVA WOODS CO. OK 06/19/2007 18:23 CST-6 Hail 1.75 in. 0 0 0.00K 0.00K
CAPRON WOODS CO. OK 06/19/2007 18:38 CST-6 Hail 1.25 in. 0 0 0.00K 0.00K
QUINLAN WOODWARD CO. OK 06/19/2007 18:42 CST-6 Hail 0.88 in. 0 0 0.00K 0.00K
WOODWARD WOODWARD CO. OK 06/19/2007 19:19 CST-6 Hail 1.00 in. 0 0 0.00K 0.00K
WOODWARD WOODWARD CO. OK 06/19/2007 19:30 CST-6 Thunderstorm Wind 60 kts. EG 0 0 10.00K 0.00K
WOODWARD WOODWARD CO. OK 06/19/2007 19:30 CST-6 Hail 1.25 in. 0 0 0.00K 0.00K
WOODWARD WOODWARD CO. OK 06/19/2007 19:30 CST-6 Hail 1.75 in. 0 0 0.00K 0.00K
WOODWARD WOODWARD CO. OK 06/19/2007 19:30 CST-6 Thunderstorm Wind 60 kts. EG 0 0 60.00K 0.00K
HENNESSEY KINGFISHER CO. OK 06/19/2007 20:00 CST-6 Thunderstorm Wind 65 kts. EG 0 0 8.00K 0.00K
GAGE ELLIS CO. OK 06/19/2007 20:10 CST-6 Hail 1.75 in. 0 0 0.00K 0.00K
OAKWOOD DEWEY CO. OK 06/19/2007 20:12 CST-6 Thunderstorm Wind 52 kts. EG 0 0 10.00K 0.00K
KINGFISHER KINGFISHER CO. OK 06/19/2007 20:20 CST-6 Thunderstorm Wind 52 kts. EG 0 0 10.00K 0.00K
WAUKOMIS GARFIELD CO. OK 06/19/2007 20:25 CST-6 Thunderstorm Wind 70 kts. EG 0 0 25.00K 0.00K
MARSHALL LOGAN CO. OK 06/19/2007 20:50 CST-6 Thunderstorm Wind 51 kts. MG 0 0 0.00K 0.00K
MARSHALL LOGAN CO. OK 06/19/2007 20:55 CST-6 Thunderstorm Wind 52 kts. MG 0 0 0.00K 0.00K
AGRA LINCOLN CO. OK 06/19/2007 20:58 CST-6 Hail 0.75 in. 0 0 0.00K 0.00K
WEATHERFORD CUSTER CO. OK 06/19/2007 21:30 CST-6 Thunderstorm Wind 52 kts. EG 0 0 6.00K 0.00K
ARNETT ELLIS CO. OK 06/19/2007 21:50 CST-6 Thunderstorm Wind 50 kts. MG 0 0 0.00K 0.00K
MINCO GRADY CO. OK 06/19/2007 22:30 CST-6 Thunderstorm Wind 53 kts. MG 0 0 0.00K 0.00K
MINCO GRADY CO. OK 06/19/2007 22:35 CST-6 Thunderstorm Wind 51 kts. MG 0 0 0.00K 0.00K
MINCO GRADY CO. OK 06/19/2007 22:40 CST-6 Thunderstorm Wind 55 kts. MG 0 0 0.00K 0.00K
CHICKASHA GRADY CO. OK 06/19/2007 23:05 CST-6 Thunderstorm Wind 53 kts. MG 0 0 0.00K 0.00K
MARTHA JACKSON CO. OK 06/19/2007 23:15 CST-6 Thunderstorm Wind 61 kts. EG 0 0 75.00K 0.00K
NORMAN CLEVELAND CO. OK 06/19/2007 23:23 CST-6 Thunderstorm Wind 52 kts. EG 0 0 15.00K 0.00K
MEDICINE PARK COMANCHE CO. OK 06/19/2007 23:25 CST-6 Thunderstorm Wind 51 kts. MG 0 0 0.00K 0.00K
GOULD HARMON CO. OK 06/19/2007 23:30 CST-6 Thunderstorm Wind 65 kts. MG 0 0 0.00K 0.00K
MEDICINE PARK COMANCHE CO. OK 06/19/2007 23:30 CST-6 Thunderstorm Wind 53 kts. MG 0 0 0.00K 0.00K
GOULD HARMON CO. OK 06/19/2007 23:35 CST-6 Thunderstorm Wind 62 kts. MG 0 0 0.00K 0.00K
MANGUM GREER CO. OK 06/19/2007 23:45 CST-6 Thunderstorm Wind 53 kts. MG 0 0 0.00K 0.00K
MANGUM GREER CO. OK 06/19/2007 23:50 CST-6 Thunderstorm Wind 56 kts. MG 0 0 0.00K 0.00K
MANGUM GREER CO. OK 06/19/2007 23:55 CST-6 Thunderstorm Wind 50 kts. MG 0 0 0.00K 0.00K
ALTUS JACKSON CO. OK 06/20/2007 00:00 CST-6 Thunderstorm Wind 53 kts. MG 0 0 0.00K 0.00K
(LTS)ALTUS AFB JACKSON CO. OK 06/20/2007 00:01 CST-6 Thunderstorm Wind 50 kts. MG 0 0 0.00K 0.00K
ALTUS JACKSON CO. OK 06/20/2007 00:15 CST-6 Thunderstorm Wind 58 kts. MG 0 0 0.00K 0.00K
TIPTON TILLMAN CO. OK 06/20/2007 00:15 CST-6 Thunderstorm Wind 65 kts. MG 0 0 0.00K 0.00K
TIPTON TILLMAN CO. OK 06/20/2007 00:20 CST-6 Thunderstorm Wind 67 kts. MG 0 0 0.00K 0.00K
TIPTON TILLMAN CO. OK 06/20/2007 00:25 CST-6 Thunderstorm Wind 59 kts. MG 0 0 0.00K 0.00K
TIPTON TILLMAN CO. OK 06/20/2007 00:30 CST-6 Thunderstorm Wind 51 kts. MG 0 0 0.00K 0.00K
GRANDFIELD TILLMAN CO. OK 06/20/2007 00:55 CST-6 Thunderstorm Wind 61 kts. EG 0 0 0.00K 0.00K
GRANDFIELD TILLMAN CO. OK 06/20/2007 00:55 CST-6 Thunderstorm Wind 62 kts. MG 0 0 0.00K 0.00K
GRANDFIELD TILLMAN CO. OK 06/20/2007 01:00 CST-6 Thunderstorm Wind 58 kts. MG 0 0 0.00K 0.00K
FREDERICK TILLMAN CO. OK 06/20/2007 01:10 CST-6 Thunderstorm Wind 52 kts. EG 0 0 0.00K 0.00K
TURNER FALLS PARK MURRAY CO. OK 06/20/2007 02:30 CST-6 Flash Flood 0 0 0.00K 0.00K
LAWTON COMANCHE CO. OK 06/20/2007 03:00 CST-6 Flash Flood 0 0 0.00K 0.00K
SEMINOLE SEMINOLE CO. OK 06/20/2007 03:30 CST-6 Flash Flood 0 0 0.00K 0.00K
ADA PONTOTOC CO. OK 06/20/2007 04:00 CST-6 Flash Flood 0 0 0.00K 0.00K
Totals: 0 0 219.00K 0.00K